Time;durP1;ratioP1;P1;durP2;ratioP2;P2;SDS_P1;SDS_P2;PMS_P1;PMS_P2;Temp;Humidity;BMP_temperature;BMP_pressure;BME280_temperature;BME280_humidity;BME280_pressure;Samples;Min_cycle;Max_cycle;Signal;HPM_P1;HPM_P2
2023/04/14 00:00:19;;;;;;;6.70;5.80;;;;;;;9.84;88.30;99022.67;106369;1256;61516;-78
2023/04/14 00:02:49;;;;;;;6.50;5.00;;;;;;;9.88;88.54;99019.75;105950;1254;62016;-77
2023/04/14 00:05:18;;;;;;;5.90;4.40;;;;;;;9.84;88.28;99024.64;105913;1254;73723;-79
2023/04/14 00:07:47;;;;;;;5.20;4.70;;;;;;;9.79;88.24;99023.29;105882;1257;70673;-77
2023/04/14 00:10:16;;;;;;;6.50;5.20;;;;;;;9.72;88.21;99023.92;105836;1254;73591;-76
2023/04/14 00:12:44;;;;;;;8.40;5.10;;;;;;;9.76;88.20;99026.15;105978;1254;60384;-77
2023/04/14 00:15:13;;;;;;;6.80;5.90;;;;;;;9.80;88.01;99021.55;106322;1253;61537;-78
2023/04/14 00:17:41;;;;;;;7.20;6.50;;;;;;;9.78;88.11;99021.31;106287;1253;74132;-78
2023/04/14 00:20:10;;;;;;;6.20;5.60;;;;;;;9.74;87.97;99019.46;106316;1259;70086;-78
2023/04/14 00:22:38;;;;;;;5.50;4.30;;;;;;;9.69;87.52;99018.81;106159;1254;73560;-75
2023/04/14 00:25:07;;;;;;;6.80;4.30;;;;;;;9.72;87.32;99022.50;106485;1254;62659;-80
2023/04/14 00:27:36;;;;;;;8.20;5.10;;;;;;;9.76;87.16;99027.73;106518;1254;61535;-80
2023/04/14 00:30:15;;;;;;;5.80;5.20;;;;;;;9.72;87.45;99026.58;106647;1254;72449;-77
2023/04/14 00:32:45;;;;;;;7.50;4.80;;;;;;;9.70;87.30;99027.42;106705;1254;70321;-77
2023/04/14 00:35:14;;;;;;;5.80;4.00;;;;;;;9.66;86.93;99026.40;106432;1260;71460;-74
2023/04/14 00:37:44;;;;;;;7.90;4.80;;;;;;;9.68;86.80;99025.46;107245;1254;62002;-80
2023/04/14 00:40:12;;;;;;;7.10;5.30;;;;;;;9.68;86.62;99026.66;107540;1253;60288;-79
2023/04/14 00:42:44;;;;;;;6.40;5.30;;;;;;;9.64;86.90;99026.42;107996;1253;72764;-78
2023/04/14 00:45:14;;;;;;;6.60;5.30;;;;;;;9.59;86.65;99029.02;106663;1253;70511;-78
2023/04/14 00:48:09;;;;;;;7.00;5.30;;;;;;;9.55;86.98;99024.71;106825;1253;73044;-78
2023/04/14 00:51:26;;;;;;;8.90;6.00;;;;;;;9.62;87.00;99021.65;106754;1254;60570;-77
2023/04/14 00:53:56;;;;;;;8.20;6.10;;;;;;;9.61;86.86;99025.26;107441;1254;61857;-76
2023/04/14 00:56:25;;;;;;;8.90;5.80;;;;;;;9.56;86.61;99024.56;107170;1253;71950;-78
2023/04/14 00:58:59;;;;;;;8.80;6.70;;;;;;;9.51;86.73;99024.97;109056;1254;71395;-77
2023/04/14 01:01:28;;;;;;;8.60;5.90;;;;;;;9.50;86.61;99018.03;109336;1253;72342;-78
2023/04/14 01:03:57;;;;;;;6.80;5.10;;;;;;;9.57;86.12;99023.04;109400;1253;61432;-78
2023/04/14 01:06:29;;;;;;;6.30;5.50;;;;;;;9.55;85.93;99026.96;109513;1253;59640;-76
2023/04/14 01:08:57;;;;;;;7.90;6.50;;;;;;;9.50;86.25;99025.88;109586;1252;73730;-77
2023/04/14 01:11:49;;;;;;;7.90;6.10;;;;;;;9.45;86.26;99028.67;109580;1253;70015;-77
2023/04/14 01:14:41;;;;;;;8.40;5.90;;;;;;;9.45;86.42;99031.73;109411;1253;71683;-78
2023/04/14 01:17:23;;;;;;;6.30;5.40;;;;;;;9.53;85.70;99035.00;109515;1253;61629;-79
2023/04/14 01:20:11;;;;;;;8.10;5.70;;;;;;;9.54;85.81;99038.41;109431;1253;60113;-78
2023/04/14 01:22:57;;;;;;;7.10;5.90;;;;;;;9.49;86.16;99040.96;109425;1253;72784;-79
2023/04/14 01:25:34;;;;;;;7.30;5.80;;;;;;;9.46;86.14;99042.55;109439;1253;70159;-78
2023/04/14 01:28:12;;;;;;;8.30;6.30;;;;;;;9.44;86.16;99041.66;109533;1253;72388;-80
2023/04/14 01:31:10;;;;;;;10.20;8.10;;;;;;;9.55;86.22;99045.06;109481;1253;61949;-79
2023/04/14 01:33:40;;;;;;;13.70;9.80;;;;;;;9.58;86.15;99036.30;109466;1253;59153;-80
2023/04/14 01:36:12;;;;;;;11.80;9.20;;;;;;;9.54;86.64;99035.92;109592;1253;71858;-80
2023/04/14 01:38:41;;;;;;;10.10;7.50;;;;;;;9.50;86.92;99030.88;109560;1254;70381;-79
2023/04/14 01:41:09;;;;;;;7.50;6.70;;;;;;;9.50;86.84;99032.77;109408;1253;72650;-80
2023/04/14 01:43:41;;;;;;;8.30;6.80;;;;;;;9.56;86.57;99036.89;109364;1253;59957;-80
2023/04/14 01:46:12;;;;;;;7.90;6.90;;;;;;;9.62;86.30;99038.58;109543;1252;60145;-78
2023/04/14 01:48:41;;;;;;;8.80;6.60;;;;;;;9.59;86.46;99039.58;109368;1254;73497;-77
2023/04/14 01:51:59;;;;;;;9.10;6.30;;;;;;;9.54;86.66;99038.98;109558;1253;70241;-80
2023/04/14 01:54:36;;;;;;;7.60;5.80;;;;;;;9.51;86.57;99037.50;109437;1254;71720;-79
2023/04/14 01:57:05;;;;;;;7.30;5.70;;;;;;;9.57;86.15;99037.68;109398;1253;62493;-76
2023/04/14 01:59:33;;;;;;;6.60;5.90;;;;;;;9.58;85.93;99037.70;109331;1253;58383;-76
2023/04/14 02:02:05;;;;;;;8.20;6.00;;;;;;;9.55;86.08;99039.60;109569;1253;71903;-77
2023/04/14 02:04:33;;;;;;;9.90;6.80;;;;;;;9.49;86.03;99040.73;109443;1253;70467;-78
2023/04/14 02:07:01;;;;;;;8.50;6.20;;;;;;;9.45;85.92;99045.07;109465;1253;72710;-77
2023/04/14 02:09:31;;;;;;;7.70;6.00;;;;;;;9.53;85.82;99043.45;109469;1252;60215;-78
2023/04/14 02:11:59;;;;;;;8.70;6.10;;;;;;;9.59;85.69;99049.13;109516;1254;60000;-77
2023/04/14 02:14:27;;;;;;;8.40;6.20;;;;;;;9.54;85.48;99045.70;109389;1253;72572;-77
2023/04/14 02:16:59;;;;;;;8.20;6.40;;;;;;;9.47;85.81;99048.20;108889;1253;70125;-77
2023/04/14 02:19:27;;;;;;;8.90;7.00;;;;;;;9.43;85.88;99050.25;107781;1252;72613;-77
2023/04/14 02:21:55;;;;;;;11.60;7.60;;;;;;;9.50;85.75;99051.30;107830;1256;60232;-77
2023/04/14 02:24:25;;;;;;;10.80;7.30;;;;;;;9.53;85.60;99054.63;107872;1254;60279;-76
2023/04/14 02:27:08;;;;;;;10.60;6.90;;;;;;;9.51;86.02;99054.34;108536;1253;72443;-77
2023/04/14 02:29:37;;;;;;;7.70;6.40;;;;;;;9.46;86.20;99060.39;109108;1253;69463;-76
2023/04/14 02:32:10;;;;;;;9.00;6.60;;;;;;;9.44;86.33;99061.36;109186;1254;71763;-77
2023/04/14 02:34:50;;;;;;;9.50;6.60;;;;;;;9.51;86.24;99066.73;109068;1252;60887;-79
2023/04/14 02:37:21;;;;;;;11.30;7.60;;;;;;;9.53;86.06;99071.00;109252;1252;59292;-78
2023/04/14 02:39:58;;;;;;;10.50;7.40;;;;;;;9.49;86.65;99073.77;109182;1253;73761;-76
2023/04/14 02:42:29;;;;;;;9.20;7.30;;;;;;;9.44;86.56;99077.23;109176;1257;69538;-76
2023/04/14 02:45:05;;;;;;;8.80;6.90;;;;;;;9.39;86.63;99077.92;108889;1253;72984;-76
2023/04/14 02:47:43;;;;;;;9.10;6.70;;;;;;;9.46;86.93;99081.79;109026;1253;59822;-77
2023/04/14 02:50:14;;;;;;;8.40;7.00;;;;;;;9.50;86.97;99086.45;108783;1252;60320;-75
2023/04/14 02:52:50;;;;;;;10.40;7.40;;;;;;;9.46;87.31;99088.19;108363;1253;71673;-77
2023/04/14 02:55:21;;;;;;;9.30;7.20;;;;;;;9.41;87.40;99087.65;108208;1252;70031;-75
2023/04/14 02:57:52;;;;;;;8.70;7.00;;;;;;;9.33;87.38;99088.44;108108;1254;70607;-78
2023/04/14 03:00:21;;;;;;;9.70;7.20;;;;;;;9.32;87.28;99092.05;107902;1253;62017;-79
2023/04/14 03:02:52;;;;;;;8.80;6.80;;;;;;;9.34;87.39;99093.39;108359;1254;60604;-77
2023/04/14 03:05:23;;;;;;;12.80;8.20;;;;;;;9.29;88.35;99096.65;108861;1253;73660;-78
2023/04/14 03:08:00;;;;;;;9.70;8.10;;;;;;;9.22;88.33;99097.02;108962;1253;70226;-77
2023/04/14 03:10:31;;;;;;;8.30;7.40;;;;;;;9.20;88.52;99101.34;109100;1252;71992;-77
2023/04/14 03:13:00;;;;;;;8.20;6.80;;;;;;;9.27;88.18;99100.04;109184;1253;61895;-77
2023/04/14 03:15:29;;;;;;;10.60;8.30;;;;;;;9.32;88.38;99105.80;108913;1253;59281;-78
2023/04/14 03:17:57;;;;;;;10.30;7.20;;;;;;;9.29;88.57;99106.23;108751;1253;73554;-77
2023/04/14 03:20:26;;;;;;;8.70;7.30;;;;;;;9.23;88.66;99107.72;108925;1253;70285;-79
2023/04/14 03:23:00;;;;;;;12.20;7.40;;;;;;;9.19;88.95;99110.92;109199;1253;73844;-78
2023/04/14 03:25:36;;;;;;;9.60;7.70;;;;;;;9.26;88.48;99110.52;109183;1254;61983;-76
2023/04/14 03:28:18;;;;;;;10.60;8.70;;;;;;;9.29;88.65;99109.13;109091;1253;60361;-79
2023/04/14 03:30:52;;;;;;;10.70;7.90;;;;;;;9.23;88.92;99106.13;109020;1254;73728;-80
2023/04/14 03:33:32;;;;;;;;;;;;;;;9.16;89.20;99107.29;107987;1253;70134;-79
2023/04/14 03:36:00;;;;;;;12.00;7.90;;;;;;;9.11;89.15;99107.02;107654;1254;70447;-81
2023/04/14 03:38:29;;;;;;;9.30;7.70;;;;;;;9.13;89.33;99112.86;107650;1253;60653;-78
2023/04/14 03:40:58;;;;;;;12.40;8.60;;;;;;;9.12;89.41;99113.38;107097;1254;60383;-72
2023/04/14 03:43:28;;;;;;;10.10;8.70;;;;;;;9.05;89.97;99117.02;106247;1258;72903;-78
2023/04/14 03:46:04;;;;;;;9.70;8.60;;;;;;;8.99;90.49;99117.69;105869;1254;70522;-78
2023/04/14 03:48:34;;;;;;;9.80;8.60;;;;;;;8.93;90.40;99117.51;106091;1255;72850;-79
2023/04/14 03:51:03;;;;;;;9.70;7.90;;;;;;;8.96;90.56;99122.10;106094;1256;62104;-79
2023/04/14 03:53:33;;;;;;;11.20;9.20;;;;;;;9.01;90.57;99116.08;106239;1258;60434;-80
2023/04/14 03:56:02;;;;;;;10.50;9.30;;;;;;;8.97;91.10;99114.67;106132;1254;71784;-80
2023/04/14 03:58:33;;;;;;;15.30;10.00;;;;;;;8.91;91.35;99119.17;106102;1256;71599;-80
2023/04/14 04:01:02;;;;;;;11.80;9.20;;;;;;;8.85;91.43;99123.66;105980;1259;72883;-81
2023/04/14 04:03:33;;;;;;;10.10;8.70;;;;;;;8.90;91.67;99124.02;105896;1259;62983;-80
2023/04/14 04:06:02;;;;;;;10.60;8.90;;;;;;;8.92;92.03;99127.09;105883;1254;60405;-80
2023/04/14 04:08:31;;;;;;;11.20;9.00;;;;;;;8.88;92.08;99129.48;105803;1253;72566;-79
2023/04/14 04:10:59;;;;;;;13.30;10.60;;;;;;;8.84;92.72;99127.32;105701;1254;69039;-82
2023/04/14 04:13:28;;;;;;;13.30;8.70;;;;;;;8.82;92.44;99128.94;105710;1254;73540;-81
2023/04/14 04:15:56;;;;;;;13.00;8.70;;;;;;;8.88;92.46;99130.54;105811;1255;62990;-82
2023/04/14 04:18:25;;;;;;;11.50;9.60;;;;;;;8.90;92.70;99131.48;106047;1254;60306;-80
2023/04/14 04:20:55;;;;;;;10.80;9.40;;;;;;;8.82;92.77;99131.40;106596;1253;71626;-82
2023/04/14 04:23:23;;;;;;;10.20;9.10;;;;;;;8.75;92.93;99136.98;107112;1259;70511;-83
2023/04/14 04:25:52;;;;;;;10.40;8.90;;;;;;;8.77;92.79;99137.98;106822;1253;71453;-81
2023/04/14 04:28:43;;;;;;;10.70;8.90;;;;;;;8.81;93.05;99141.92;107503;1253;60308;-84
2023/04/14 04:31:13;;;;;;;10.80;9.00;;;;;;;8.79;93.43;99138.79;107145;1254;61378;-83
2023/04/14 04:33:42;;;;;;;11.40;10.00;;;;;;;8.75;93.90;99140.95;106656;1254;71493;-82
2023/04/14 04:36:12;;;;;;;12.00;9.30;;;;;;;8.76;93.62;99140.42;106441;1253;71333;-82
2023/04/14 04:38:42;;;;;;;11.40;9.30;;;;;;;8.82;93.75;99139.70;106112;1258;73629;-81
2023/04/14 04:41:24;;;;;;;10.90;9.00;;;;;;;8.80;93.67;99144.55;105833;1259;60552;-81
2023/04/14 04:43:53;;;;;;;12.70;10.50;;;;;;;8.74;93.77;99146.05;105946;1255;60428;-83
2023/04/14 04:46:37;;;;;;;12.80;9.60;;;;;;;8.69;93.92;99149.48;106042;1254;74655;-82
2023/04/14 04:49:05;;;;;;;12.00;9.50;;;;;;;8.72;93.84;99152.61;106137;1259;70091;-84
2023/04/14 04:51:34;;;;;;;12.50;9.90;;;;;;;8.77;93.87;99160.71;106232;1254;72625;-82
2023/04/14 04:54:02;;;;;;;15.00;9.90;;;;;;;8.75;94.00;99160.02;109336;1252;59063;-83
2023/04/14 04:56:33;;;;;;;12.30;9.50;;;;;;;8.73;93.81;99164.20;109266;1254;59834;-81
2023/04/14 04:59:01;;;;;;;11.00;9.40;;;;;;;8.79;94.01;99169.52;107172;1254;73913;-84
2023/04/14 05:01:30;;;;;;;12.20;9.50;;;;;;;8.84;93.87;99174.09;107485;1256;70438;-80
2023/04/14 05:04:00;;;;;;;11.10;10.00;;;;;;;8.81;94.22;99177.75;106837;1259;71497;-81
2023/04/14 05:06:28;;;;;;;12.40;10.30;;;;;;;8.78;94.19;99176.34;106201;1253;62191;-74
2023/04/14 05:08:57;;;;;;;13.70;10.70;;;;;;;8.83;94.04;99180.40;105868;1254;60496;-76
2023/04/14 05:11:26;;;;;;;12.50;10.20;;;;;;;8.84;94.03;99182.31;105851;1259;74062;-77
2023/04/14 05:13:55;;;;;;;12.00;10.60;;;;;;;8.81;93.99;99181.48;106040;1260;71119;-75
2023/04/14 05:16:24;;;;;;;14.60;10.30;;;;;;;8.76;94.32;99183.76;105891;1255;73790;-77
2023/04/14 05:18:56;;;;;;;15.60;9.80;;;;;;;8.81;94.30;99187.31;105941;1254;62310;-75
2023/04/14 05:21:25;;;;;;;13.90;11.70;;;;;;;8.84;94.43;99194.57;106025;1254;60527;-74
2023/04/14 05:23:53;;;;;;;13.30;10.50;;;;;;;8.81;94.58;99188.41;105948;1254;74974;-77
2023/04/14 05:26:26;;;;;;;12.20;10.00;;;;;;;8.75;94.31;99195.86;105814;1254;71534;-76
2023/04/14 05:29:15;;;;;;;12.40;9.60;;;;;;;8.79;94.43;99196.23;105845;1254;73461;-78
2023/04/14 05:31:43;;;;;;;12.30;10.40;;;;;;;8.78;94.56;99199.61;105851;1259;60501;-73
2023/04/14 05:34:11;;;;;;;12.70;10.90;;;;;;;8.74;94.71;99203.86;105920;1253;60417;-71
2023/04/14 05:36:44;;;;;;;12.30;10.20;;;;;;;8.72;94.98;99208.63;105928;1259;73732;-73
2023/04/14 05:39:12;;;;;;;11.70;10.10;;;;;;;8.80;95.05;99208.98;105922;1254;68211;-72
2023/04/14 05:41:43;;;;;;;12.30;10.50;;;;;;;8.83;95.10;99206.88;105883;1254;72565;-70
2023/04/14 05:44:11;;;;;;;12.30;10.40;;;;;;;8.79;95.31;99208.48;105666;1254;61372;-71
2023/04/14 05:46:40;;;;;;;14.90;10.90;;;;;;;8.83;95.50;99207.71;105856;1254;60485;-69
2023/04/14 05:49:11;;;;;;;11.80;9.50;;;;;;;8.93;95.37;99204.70;105452;1259;73568;-73
2023/04/14 05:51:39;;;;;;;13.60;10.30;;;;;;;8.98;95.27;99206.40;105931;1254;70466;-73
2023/04/14 05:54:13;;;;;;;12.60;10.10;;;;;;;8.96;95.54;99209.69;105748;1261;72496;-71
2023/04/14 05:56:42;;;;;;;10.70;9.50;;;;;;;9.00;95.33;99215.45;105790;1254;62751;-71
2023/04/14 05:59:10;;;;;;;15.10;10.60;;;;;;;9.07;95.56;99213.55;105896;1254;60422;-71
2023/04/14 06:01:39;;;;;;;12.50;9.90;;;;;;;9.07;95.56;99215.88;105849;1260;72849;-72
2023/04/14 06:04:09;;;;;;;11.30;10.10;;;;;;;9.09;95.44;99216.73;105975;1254;71787;-72
2023/04/14 06:06:39;;;;;;;12.80;10.70;;;;;;;9.14;95.45;99220.39;105837;1257;72111;-74
2023/04/14 06:09:10;;;;;;;10.60;9.40;;;;;;;9.16;95.37;99227.04;105689;1254;271960;-74
2023/04/14 06:13:53;;;;;;;12.60;10.50;;;;;;;9.23;95.50;99226.49;103138;1285;602870;-74
2023/04/14 06:16:20;;;;;;;13.00;10.30;;;;;;;9.19;95.71;99230.39;105035;1267;59304;-73
2023/04/14 06:18:49;;;;;;;11.20;10.00;;;;;;;9.23;95.96;99230.67;105012;1272;60460;-75
2023/04/14 06:21:16;;;;;;;13.60;11.00;;;;;;;9.25;96.02;99230.67;104723;1268;71037;-75
2023/04/14 06:23:43;;;;;;;13.20;10.20;;;;;;;9.23;96.30;99237.79;104966;1272;71120;-75
2023/04/14 06:26:15;;;;;;;12.00;10.30;;;;;;;9.24;96.67;99237.08;105223;1260;235465;-74
2023/04/14 06:28:44;;;;;;;12.90;10.90;;;;;;;9.23;96.82;99239.48;105512;1258;60448;-72
2023/04/14 06:31:13;;;;;;;11.20;10.00;;;;;;;9.24;97.84;99244.48;105524;1262;61412;-74
2023/04/14 06:33:40;;;;;;;14.80;11.00;;;;;;;9.26;97.75;99245.55;105558;1257;72245;-71
2023/04/14 06:36:08;;;;;;;12.40;10.60;;;;;;;9.27;97.73;99244.92;105547;1257;71101;-73
2023/04/14 06:38:35;;;;;;;14.30;10.80;;;;;;;9.25;98.01;99249.02;105623;1257;72766;-75
2023/04/14 06:41:02;;;;;;;13.20;10.90;;;;;;;9.24;98.00;99251.92;105525;1258;62244;-73
2023/04/14 06:43:30;;;;;;;13.30;11.10;;;;;;;9.26;98.07;99256.69;105605;1258;61334;-74
2023/04/14 06:45:57;;;;;;;12.20;9.60;;;;;;;9.28;98.05;99255.21;105654;1261;74170;-75
2023/04/14 06:48:26;;;;;;;13.30;10.90;;;;;;;9.27;98.20;99256.62;105686;1258;70391;-75
2023/04/14 06:50:54;;;;;;;12.20;10.30;;;;;;;9.26;98.89;99255.80;105609;1260;72616;-75
2023/04/14 06:53:22;;;;;;;16.20;10.90;;;;;;;9.28;99.20;99257.94;105706;1263;61349;-75
2023/04/14 06:55:59;;;;;;;12.10;10.20;;;;;;;9.26;99.44;99259.83;105572;1258;61000;-75
2023/04/14 06:58:29;;;;;;;11.80;10.60;;;;;;;9.20;99.40;99261.17;105749;1258;73966;-76
2023/04/14 07:00:57;;;;;;;11.10;9.80;;;;;;;9.19;99.45;99263.27;105759;1257;70566;-77
2023/04/14 07:03:26;;;;;;;14.20;10.10;;;;;;;9.22;99.69;99265.58;105871;1257;75159;-78
2023/04/14 07:05:53;;;;;;;13.10;10.60;;;;;;;9.23;99.84;99271.44;105654;1257;61374;-76
2023/04/14 07:08:22;;;;;;;13.00;9.90;;;;;;;9.26;99.95;99273.61;105802;1257;59644;-76
2023/04/14 07:10:49;;;;;;;12.80;11.10;;;;;;;9.31;100.00;99276.13;105708;1258;72238;-76
2023/04/14 07:13:16;;;;;;;11.80;10.60;;;;;;;9.35;100.00;99278.19;106627;1257;69759;-77
2023/04/14 07:15:51;;;;;;;10.90;9.70;;;;;;;9.39;100.00;99285.08;106498;1257;72445;-76
2023/04/14 07:18:19;;;;;;;12.90;10.20;;;;;;;9.41;100.00;99286.45;106290;1260;60280;-76
2023/04/14 07:20:48;;;;;;;14.00;10.50;;;;;;;9.42;100.00;99287.39;106655;1256;59653;-78
2023/04/14 07:23:20;;;;;;;13.70;10.60;;;;;;;9.44;100.00;99289.49;105757;1260;74082;-75
2023/04/14 07:25:57;;;;;;;11.30;10.00;;;;;;;9.48;100.00;99289.05;105725;1256;70383;-77
2023/04/14 07:28:24;;;;;;;14.50;11.10;;;;;;;9.52;100.00;99291.30;105953;1259;73674;-79
2023/04/14 07:30:52;;;;;;;14.00;11.40;;;;;;;9.54;100.00;99291.25;105924;1254;61420;-75
2023/04/14 07:33:21;;;;;;;14.10;10.50;;;;;;;9.59;100.00;99292.77;105704;1254;59918;-77
2023/04/14 07:35:54;;;;;;;15.40;11.40;;;;;;;9.64;100.00;99289.14;105690;1260;72297;-78
2023/04/14 07:38:32;;;;;;;13.00;11.50;;;;;;;9.69;100.00;99290.81;105852;1257;71511;-79
2023/04/14 07:41:04;;;;;;;13.50;11.20;;;;;;;9.73;100.00;99291.05;105857;1254;74013;-76
2023/04/14 07:43:34;;;;;;;13.50;12.10;;;;;;;9.74;100.00;99291.95;105829;1254;61524;-78
2023/04/14 07:46:05;;;;;;;13.60;12.00;;;;;;;9.76;100.00;99290.30;105805;1259;62777;-78
2023/04/14 07:48:33;;;;;;;14.10;11.80;;;;;;;9.84;100.00;99286.98;105800;1259;71906;-80
2023/04/14 07:51:03;;;;;;;15.20;12.10;;;;;;;9.94;100.00;99284.44;106143;1254;71471;-78
2023/04/14 07:53:31;;;;;;;12.70;11.20;;;;;;;10.00;100.00;99286.68;106415;1254;73815;-78
2023/04/14 07:55:58;;;;;;;13.70;12.00;;;;;;;10.06;100.00;99286.75;106278;1257;60044;-78
2023/04/14 07:58:25;;;;;;;12.80;10.90;;;;;;;10.03;100.00;99282.63;105896;1260;61023;-81
2023/04/14 08:00:55;;;;;;;14.00;12.50;;;;;;;10.04;100.00;99289.05;105863;1259;74001;-79
2023/04/14 08:03:23;;;;;;;18.90;13.10;;;;;;;10.08;100.00;99289.56;105857;1254;69982;-79
2023/04/14 08:05:50;;;;;;;15.40;13.00;;;;;;;10.14;100.00;99289.55;105906;1254;72734;-79
2023/04/14 08:08:19;;;;;;;14.60;12.70;;;;;;;10.21;100.00;99292.22;105880;1254;60929;-77
2023/04/14 08:10:47;;;;;;;14.60;12.70;;;;;;;10.27;100.00;99294.84;105853;1260;61285;-78
2023/04/14 08:13:14;;;;;;;12.30;11.00;;;;;;;10.27;100.00;99298.33;105898;1259;73732;-78
2023/04/14 08:15:42;;;;;;;15.80;12.40;;;;;;;10.27;99.93;99302.23;105956;1259;70110;-77
2023/04/14 08:18:09;;;;;;;14.70;11.10;;;;;;;10.28;99.76;99304.23;105805;1254;73022;-79
2023/04/14 08:20:36;;;;;;;14.80;12.10;;;;;;;10.29;99.88;99300.80;105982;1254;59888;-78
2023/04/14 08:23:03;;;;;;;12.70;11.40;;;;;;;10.30;99.93;99300.24;106037;1257;60008;-78
2023/04/14 08:25:30;;;;;;;17.80;12.90;;;;;;;10.35;99.91;99302.25;105954;1254;72521;-76
2023/04/14 08:27:57;;;;;;;13.10;11.80;;;;;;;10.38;99.91;99304.68;105928;1254;69794;-79
2023/04/14 08:30:23;;;;;;;15.20;13.00;;;;;;;10.44;99.73;99305.95;105901;1254;72642;-76
2023/04/14 08:32:53;;;;;;;17.00;13.90;;;;;;;10.48;98.82;99307.43;106063;1254;60578;-78
2023/04/14 08:35:25;;;;;;;16.00;14.00;;;;;;;10.54;98.95;99305.85;105852;1254;59500;-80
2023/04/14 08:38:10;;;;;;;16.00;13.90;;;;;;;10.65;98.81;99302.31;105779;1257;74349;-78
2023/04/14 08:40:39;;;;;;;15.20;13.60;;;;;;;10.71;98.57;99297.30;105826;1254;71402;-79
2023/04/14 08:43:06;;;;;;;15.30;13.20;;;;;;;10.75;97.67;99294.83;106015;1254;73690;-78
2023/04/14 08:45:35;;;;;;;14.60;12.30;;;;;;;10.81;97.26;99294.95;105890;1254;61371;-78
2023/04/14 08:48:03;;;;;;;16.50;13.70;;;;;;;10.86;97.17;99293.24;105900;1253;59988;-75
2023/04/14 08:50:32;;;;;;;15.20;12.90;;;;;;;10.88;96.15;99296.59;105691;1254;73041;-79
2023/04/14 08:53:04;;;;;;;14.00;12.60;;;;;;;10.92;97.28;99294.69;106006;1254;71512;-79
2023/04/14 08:55:32;;;;;;;13.30;11.90;;;;;;;10.94;96.92;99298.73;105859;1257;74282;-80
2023/04/14 08:58:00;;;;;;;15.40;10.80;;;;;;;10.96;96.95;99296.84;106044;1254;60486;-78
2023/04/14 09:00:30;;;;;;;14.70;12.40;;;;;;;10.95;96.93;99300.34;106007;1254;60508;-76
2023/04/14 09:03:13;;;;;;;14.30;11.70;;;;;;;10.97;96.51;99297.46;106059;1257;74008;-77
2023/04/14 09:05:40;;;;;;;12.40;11.10;;;;;;;11.01;96.06;99301.41;105923;1254;69919;-79
2023/04/14 09:08:07;;;;;;;13.50;10.90;;;;;;;11.03;95.75;99300.65;105915;1256;73119;-77
2023/04/14 09:10:37;;;;;;;12.70;10.50;;;;;;;11.05;95.77;99305.71;106020;1254;61350;-78
2023/04/14 09:13:05;;;;;;;13.00;10.40;;;;;;;11.08;95.84;99308.02;106049;1254;61278;-78
2023/04/14 09:15:32;;;;;;;12.20;10.90;;;;;;;11.13;95.95;99310.83;106096;1254;71878;-78
2023/04/14 09:18:00;;;;;;;11.50;10.40;;;;;;;11.19;95.78;99313.69;106189;1254;69264;-79
2023/04/14 09:20:28;;;;;;;12.30;10.40;;;;;;;11.25;95.56;99315.58;106138;1258;73898;-78
2023/04/14 09:23:03;;;;;;;11.70;10.40;;;;;;;11.33;96.13;99316.95;105896;1254;61487;-78
2023/04/14 09:25:31;;;;;;;13.10;10.40;;;;;;;11.39;96.77;99313.27;105715;1254;59791;-77
2023/04/14 09:27:59;;;;;;;12.30;10.90;;;;;;;11.41;96.06;99316.66;105812;1255;71944;-78
2023/04/14 09:30:27;;;;;;;12.40;11.10;;;;;;;11.43;95.01;99316.60;105782;1257;69246;-78
2023/04/14 09:32:55;;;;;;;11.70;10.40;;;;;;;11.46;95.15;99316.64;105616;1254;70274;-76
2023/04/14 09:35:27;;;;;;;15.90;14.40;;;;;;;11.50;95.49;99314.27;105808;1254;62296;-76
2023/04/14 09:37:54;;;;;;;18.50;16.70;;;;;;;11.57;95.29;99316.58;105563;1260;59857;-79
2023/04/14 09:40:29;;;;;;;16.90;14.60;;;;;;;11.64;94.75;99319.66;105839;1253;73620;-76
2023/04/14 09:42:56;;;;;;;14.60;13.10;;;;;;;11.65;94.09;99324.56;105814;1254;70511;-78
2023/04/14 09:45:41;;;;;;;12.20;11.00;;;;;;;11.59;93.00;99328.35;105864;1255;72469;-79
2023/04/14 09:48:09;;;;;;;12.40;10.10;;;;;;;11.52;92.02;99332.02;105806;1254;59634;-78
2023/04/14 09:51:04;;;;;;;15.00;11.30;;;;;;;11.43;91.59;99335.09;105856;1259;61141;-78
2023/04/14 09:53:35;;;;;;;13.10;10.40;;;;;;;11.34;91.35;99341.77;105877;1254;74216;-79
2023/04/14 09:56:06;;;;;;;11.10;9.80;;;;;;;11.30;91.61;99341.55;106037;1254;69647;-78
2023/04/14 09:58:36;;;;;;;14.00;11.00;;;;;;;11.32;91.82;99341.23;106080;1254;72162;-76
2023/04/14 10:01:11;;;;;;;11.60;10.30;;;;;;;11.34;91.62;99343.13;106231;1254;61227;-75
2023/04/14 10:03:44;;;;;;;12.30;10.10;;;;;;;11.37;91.68;99343.36;106218;1253;59638;-78
2023/04/14 10:06:15;;;;;;;12.50;11.20;;;;;;;11.39;92.07;99342.24;106209;1254;74030;-77
2023/04/14 10:08:43;;;;;;;11.70;10.60;;;;;;;11.42;92.11;99346.21;105869;1254;71374;-78
2023/04/14 10:11:31;;;;;;;12.70;11.40;;;;;;;11.45;91.75;99347.65;105867;1254;72665;-78
2023/04/14 10:14:03;;;;;;;12.20;10.90;;;;;;;11.45;91.55;99344.38;105875;1254;61562;-78
2023/04/14 10:16:30;;;;;;;12.90;10.20;;;;;;;11.45;90.62;99345.55;105784;1254;60383;-79
2023/04/14 10:18:57;;;;;;;12.40;10.30;;;;;;;11.45;90.66;99346.34;105821;1257;73733;-78
2023/04/14 10:21:26;;;;;;;12.10;10.70;;;;;;;11.49;91.96;99347.27;105820;1254;70386;-79
2023/04/14 10:23:56;;;;;;;11.10;10.00;;;;;;;11.51;92.71;99346.50;105818;1257;72374;-77
2023/04/14 10:26:24;;;;;;;11.50;10.40;;;;;;;11.51;93.27;99346.66;106240;1260;60543;-80
2023/04/14 10:28:53;;;;;;;12.10;10.70;;;;;;;11.50;93.44;99348.98;106046;1261;60757;-79
2023/04/14 10:31:41;;;;;;;13.40;10.90;;;;;;;11.48;92.30;99353.13;106630;1257;74045;-78
2023/04/14 10:34:10;;;;;;;11.80;10.40;;;;;;;11.46;92.28;99358.39;106338;1254;71317;-76
2023/04/14 10:36:39;;;;;;;12.70;10.30;;;;;;;11.40;91.92;99357.60;105906;1260;72717;-76
2023/04/14 10:39:06;;;;;;;12.80;10.30;;;;;;;11.38;91.80;99358.96;106025;1258;62916;-77
2023/04/14 10:41:41;;;;;;;11.20;10.10;;;;;;;11.34;91.21;99364.35;105938;1254;60696;-78
2023/04/14 10:44:31;;;;;;;14.40;9.80;;;;;;;11.29;90.92;99364.90;105867;1254;75065;-79
2023/04/14 10:47:00;;;;;;;11.20;9.20;;;;;;;11.26;91.06;99370.32;105887;1257;69849;-78
2023/04/14 10:49:29;;;;;;;13.00;9.90;;;;;;;11.26;91.42;99371.92;105671;1260;71428;-77
2023/04/14 10:52:03;;;;;;;11.60;10.10;;;;;;;11.22;91.34;99367.89;105889;1257;60549;-77
2023/04/14 10:55:06;;;;;;;11.80;9.70;;;;;;;11.21;91.41;99373.45;105909;1259;60380;-77
2023/04/14 10:57:41;;;;;;;10.40;9.20;;;;;;;11.20;90.69;99372.70;105859;1253;73398;-78
2023/04/14 11:00:30;;;;;;;11.50;9.60;;;;;;;11.22;89.83;99375.70;105792;1254;71243;-76
2023/04/14 11:03:16;;;;;;;12.30;10.30;;;;;;;11.22;91.01;99379.27;105709;1261;72240;-76
2023/04/14 11:05:46;;;;;;;12.10;9.50;;;;;;;11.21;91.57;99378.93;105927;1257;60456;-74
2023/04/14 11:08:16;;;;;;;11.80;9.60;;;;;;;11.21;91.62;99379.01;105852;1259;60438;-78
2023/04/14 11:10:47;;;;;;;10.70;9.50;;;;;;;11.21;91.67;99381.63;105979;1254;74362;-77
2023/04/14 11:13:14;;;;;;;12.10;9.40;;;;;;;11.22;91.02;99382.05;106012;1254;70470;-78
2023/04/14 11:15:49;;;;;;;10.40;9.10;;;;;;;11.24;90.83;99385.52;105991;1254;71694;-76
2023/04/14 11:18:19;;;;;;;;;;;;;;;11.29;90.20;99391.03;105950;1259;60904;-77
2023/04/14 11:20:46;;;;;;;11.50;9.00;;;;;;;11.31;90.13;99396.05;105988;1257;60421;-77
2023/04/14 11:23:18;;;;;;;12.40;10.30;;;;;;;11.39;90.00;99402.89;106092;1257;75018;-75
2023/04/14 11:25:44;;;;;;;12.60;9.70;;;;;;;11.46;89.36;99403.64;105918;1254;68766;-78
2023/04/14 11:28:11;;;;;;;11.70;9.50;;;;;;;11.49;89.11;99404.55;106050;1254;73643;-77
2023/04/14 11:30:40;;;;;;;10.80;9.50;;;;;;;11.51;88.76;99403.52;105993;1253;60516;-78
2023/04/14 11:33:07;;;;;;;11.20;9.50;;;;;;;11.47;88.78;99401.94;105625;1254;60554;-76
2023/04/14 11:35:34;;;;;;;12.60;9.90;;;;;;;11.49;89.02;99401.44;105856;1256;74914;-77
2023/04/14 11:38:02;;;;;;;10.80;9.20;;;;;;;11.49;89.08;99398.24;105887;1254;69426;-78
2023/04/14 11:40:30;;;;;;;12.50;9.90;;;;;;;11.52;88.61;99399.81;105906;1254;72620;-77